sensor_id;sensor_type;location;lat;lon;timestamp;pressure;altitude;pressure_sealevel;temperature;humidity
2000;BME280;1001;48.87406500;9.59633600;2023-07-13T00:00:35;95121.66;;;18.85;74.50
2000;BME280;1001;48.87406500;9.59633600;2023-07-13T00:03:02;95108.13;;;18.87;73.62
2000;BME280;1001;48.87406500;9.59633600;2023-07-13T00:05:29;95113.47;;;18.82;73.92
2000;BME280;1001;48.87406500;9.59633600;2023-07-13T00:07:56;95108.25;;;18.72;73.58
2000;BME280;1001;48.87406500;9.59633600;2023-07-13T00:10:24;95104.00;;;18.76;72.84
2000;BME280;1001;48.87406500;9.59633600;2023-07-13T00:12:51;95104.84;;;18.71;73.01
2000;BME280;1001;48.87406500;9.59633600;2023-07-13T00:15:23;95098.41;;;18.77;72.39
2000;BME280;1001;48.87406500;9.59633600;2023-07-13T00:17:50;95097.16;;;18.70;72.05
2000;BME280;1001;48.87406500;9.59633600;2023-07-13T00:20:18;95083.19;;;18.64;72.78
2000;BME280;1001;48.87406500;9.59633600;2023-07-13T00:22:46;95090.28;;;18.69;71.90
2000;BME280;1001;48.87406500;9.59633600;2023-07-13T00:25:13;95081.84;;;18.67;71.40
2000;BME280;1001;48.87406500;9.59633600;2023-07-13T00:27:41;95095.84;;;18.67;71.89
2000;BME280;1001;48.87406500;9.59633600;2023-07-13T00:30:10;95105.72;;;18.62;71.99
2000;BME280;1001;48.87406500;9.59633600;2023-07-13T00:32:37;95117.41;;;18.56;72.92
2000;BME280;1001;48.87406500;9.59633600;2023-07-13T00:35:04;95107.00;;;18.64;72.61
2000;BME280;1001;48.87406500;9.59633600;2023-07-13T00:37:31;95107.28;;;18.63;72.44
2000;BME280;1001;48.87406500;9.59633600;2023-07-13T00:39:58;95110.75;;;18.58;72.88
2000;BME280;1001;48.87406500;9.59633600;2023-07-13T00:42:25;95109.56;;;18.41;73.43
2000;BME280;1001;48.87406500;9.59633600;2023-07-13T00:45:04;95123.63;;;18.36;73.77
2000;BME280;1001;48.87406500;9.59633600;2023-07-13T00:47:31;95123.56;;;18.41;73.13
2000;BME280;1001;48.87406500;9.59633600;2023-07-13T00:49:57;95130.53;;;18.32;74.03
2000;BME280;1001;48.87406500;9.59633600;2023-07-13T00:52:24;95137.72;;;18.26;74.24
2000;BME280;1001;48.87406500;9.59633600;2023-07-13T00:54:51;95124.44;;;18.31;74.12
2000;BME280;1001;48.87406500;9.59633600;2023-07-13T00:57:19;95128.66;;;18.38;73.86
2000;BME280;1001;48.87406500;9.59633600;2023-07-13T00:59:50;95121.28;;;18.29;74.14
2000;BME280;1001;48.87406500;9.59633600;2023-07-13T01:02:19;95121.13;;;18.16;74.40
2000;BME280;1001;48.87406500;9.59633600;2023-07-13T01:04:46;95130.03;;;17.86;75.53
2000;BME280;1001;48.87406500;9.59633600;2023-07-13T01:07:13;95133.44;;;17.92;75.64
2000;BME280;1001;48.87406500;9.59633600;2023-07-13T01:09:40;95131.59;;;17.87;75.47
2000;BME280;1001;48.87406500;9.59633600;2023-07-13T01:12:08;95131.94;;;17.76;76.00
2000;BME280;1001;48.87406500;9.59633600;2023-07-13T01:14:34;95121.13;;;17.72;75.41
2000;BME280;1001;48.87406500;9.59633600;2023-07-13T01:17:01;95121.63;;;17.79;74.87
2000;BME280;1001;48.87406500;9.59633600;2023-07-13T01:19:35;95125.59;;;17.77;73.43
2000;BME280;1001;48.87406500;9.59633600;2023-07-13T01:22:05;95124.50;;;17.78;73.93
2000;BME280;1001;48.87406500;9.59633600;2023-07-13T01:24:34;95122.97;;;17.72;74.23
2000;BME280;1001;48.87406500;9.59633600;2023-07-13T01:27:01;95127.47;;;17.66;74.26
2000;BME280;1001;48.87406500;9.59633600;2023-07-13T01:29:28;95121.16;;;17.67;72.81
2000;BME280;1001;48.87406500;9.59633600;2023-07-13T01:31:55;95131.97;;;17.65;72.79
2000;BME280;1001;48.87406500;9.59633600;2023-07-13T01:34:21;95135.19;;;17.62;73.08
2000;BME280;1001;48.87406500;9.59633600;2023-07-13T01:36:48;95130.44;;;17.54;73.34
2000;BME280;1001;48.87406500;9.59633600;2023-07-13T01:39:16;95129.38;;;17.50;73.89
2000;BME280;1001;48.87406500;9.59633600;2023-07-13T01:41:43;95127.50;;;17.51;74.13
2000;BME280;1001;48.87406500;9.59633600;2023-07-13T01:44:09;95122.00;;;17.47;74.17
2000;BME280;1001;48.87406500;9.59633600;2023-07-13T01:46:36;95126.47;;;17.47;73.97
2000;BME280;1001;48.87406500;9.59633600;2023-07-13T01:49:02;95124.44;;;17.34;74.91
2000;BME280;1001;48.87406500;9.59633600;2023-07-13T01:51:29;95130.25;;;17.31;75.71
2000;BME280;1001;48.87406500;9.59633600;2023-07-13T01:53:55;95127.91;;;17.09;76.78
2000;BME280;1001;48.87406500;9.59633600;2023-07-13T01:56:23;95136.38;;;17.06;76.99
2000;BME280;1001;48.87406500;9.59633600;2023-07-13T01:58:51;95130.06;;;17.02;77.49
2000;BME280;1001;48.87406500;9.59633600;2023-07-13T02:01:18;95125.03;;;17.00;76.85
2000;BME280;1001;48.87406500;9.59633600;2023-07-13T02:03:45;95134.28;;;16.98;76.78
2000;BME280;1001;48.87406500;9.59633600;2023-07-13T02:06:11;95127.97;;;16.94;76.71
2000;BME280;1001;48.87406500;9.59633600;2023-07-13T02:08:39;95126.38;;;16.83;78.17
2000;BME280;1001;48.87406500;9.59633600;2023-07-13T02:11:06;95140.41;;;16.68;79.12
2000;BME280;1001;48.87406500;9.59633600;2023-07-13T02:13:34;95138.81;;;16.62;79.53
2000;BME280;1001;48.87406500;9.59633600;2023-07-13T02:16:01;95139.59;;;16.73;77.91
2000;BME280;1001;48.87406500;9.59633600;2023-07-13T02:18:27;95144.09;;;16.57;79.52
2000;BME280;1001;48.87406500;9.59633600;2023-07-13T02:20:54;95141.69;;;16.46;80.30
2000;BME280;1001;48.87406500;9.59633600;2023-07-13T02:23:20;95142.75;;;16.34;81.60
2000;BME280;1001;48.87406500;9.59633600;2023-07-13T02:25:47;95139.56;;;16.17;82.60
2000;BME280;1001;48.87406500;9.59633600;2023-07-13T02:28:14;95143.78;;;16.18;81.96
2000;BME280;1001;48.87406500;9.59633600;2023-07-13T02:30:42;95137.97;;;16.21;81.53
2000;BME280;1001;48.87406500;9.59633600;2023-07-13T02:33:09;95139.81;;;16.21;81.70
2000;BME280;1001;48.87406500;9.59633600;2023-07-13T02:35:35;95141.41;;;16.22;81.90
2000;BME280;1001;48.87406500;9.59633600;2023-07-13T02:38:02;95142.22;;;16.17;81.95
2000;BME280;1001;48.87406500;9.59633600;2023-07-13T02:40:29;95140.34;;;16.13;82.33
2000;BME280;1001;48.87406500;9.59633600;2023-07-13T02:42:58;95138.75;;;16.07;82.78
2000;BME280;1001;48.87406500;9.59633600;2023-07-13T02:45:25;95134.56;;;16.11;82.43
2000;BME280;1001;48.87406500;9.59633600;2023-07-13T02:47:53;95142.97;;;16.08;83.36
2000;BME280;1001;48.87406500;9.59633600;2023-07-13T02:50:20;95137.69;;;15.98;83.75
2000;BME280;1001;48.87406500;9.59633600;2023-07-13T02:52:47;95131.34;;;15.94;84.40
2000;BME280;1001;48.87406500;9.59633600;2023-07-13T02:55:13;95136.34;;;15.90;84.18
2000;BME280;1001;48.87406500;9.59633600;2023-07-13T02:57:40;95136.88;;;15.82;85.17
2000;BME280;1001;48.87406500;9.59633600;2023-07-13T03:00:08;95138.44;;;15.83;85.12
2000;BME280;1001;48.87406500;9.59633600;2023-07-13T03:02:35;95142.16;;;15.82;85.37
2000;BME280;1001;48.87406500;9.59633600;2023-07-13T03:05:04;95137.38;;;15.79;85.14
2000;BME280;1001;48.87406500;9.59633600;2023-07-13T03:07:31;95146.59;;;15.77;85.85
2000;BME280;1001;48.87406500;9.59633600;2023-07-13T03:09:58;95156.59;;;15.70;86.41
2000;BME280;1001;48.87406500;9.59633600;2023-07-13T03:12:25;95153.94;;;15.64;86.60
2000;BME280;1001;48.87406500;9.59633600;2023-07-13T03:14:52;95150.22;;;15.55;86.84
2000;BME280;1001;48.87406500;9.59633600;2023-07-13T03:17:18;95156.28;;;15.51;87.20
2000;BME280;1001;48.87406500;9.59633600;2023-07-13T03:19:45;95152.25;;;15.43;87.67
2000;BME280;1001;48.87406500;9.59633600;2023-07-13T03:22:16;95155.69;;;15.44;87.22
2000;BME280;1001;48.87406500;9.59633600;2023-07-13T03:24:43;95157.31;;;15.45;87.27
2000;BME280;1001;48.87406500;9.59633600;2023-07-13T03:27:09;95150.72;;;15.52;86.36
2000;BME280;1001;48.87406500;9.59633600;2023-07-13T03:29:36;95156.31;;;15.61;85.64
2000;BME280;1001;48.87406500;9.59633600;2023-07-13T03:32:03;95157.13;;;15.61;85.53
2000;BME280;1001;48.87406500;9.59633600;2023-07-13T03:34:30;95157.41;;;15.70;84.51
2000;BME280;1001;48.87406500;9.59633600;2023-07-13T03:36:58;95161.13;;;15.84;82.50
2000;BME280;1001;48.87406500;9.59633600;2023-07-13T03:39:25;95170.94;;;15.99;81.13
2000;BME280;1001;48.87406500;9.59633600;2023-07-13T03:41:53;95173.59;;;16.09;80.82
2000;BME280;1001;48.87406500;9.59633600;2023-07-13T03:44:19;95177.56;;;16.16;80.22
2000;BME280;1001;48.87406500;9.59633600;2023-07-13T03:46:46;95171.25;;;16.27;79.22
2000;BME280;1001;48.87406500;9.59633600;2023-07-13T03:49:12;95178.13;;;16.39;79.25
2000;BME280;1001;48.87406500;9.59633600;2023-07-13T03:51:39;95186.31;;;16.32;80.37
2000;BME280;1001;48.87406500;9.59633600;2023-07-13T03:54:06;95186.81;;;16.29;80.63
2000;BME280;1001;48.87406500;9.59633600;2023-07-13T03:56:34;95188.66;;;16.28;80.79
2000;BME280;1001;48.87406500;9.59633600;2023-07-13T03:59:00;95187.34;;;16.31;80.25
2000;BME280;1001;48.87406500;9.59633600;2023-07-13T04:01:27;95187.63;;;16.40;79.45
2000;BME280;1001;48.87406500;9.59633600;2023-07-13T04:03:54;95190.59;;;16.58;77.94
2000;BME280;1001;48.87406500;9.59633600;2023-07-13T04:06:22;95187.41;;;16.51;78.90
2000;BME280;1001;48.87406500;9.59633600;2023-07-13T04:08:52;95199.03;;;16.55;79.42
2000;BME280;1001;48.87406500;9.59633600;2023-07-13T04:11:20;95202.44;;;16.66;78.92
2000;BME280;1001;48.87406500;9.59633600;2023-07-13T04:13:49;95201.66;;;16.55;78.56
2000;BME280;1001;48.87406500;9.59633600;2023-07-13T04:16:16;95200.34;;;16.68;78.54
2000;BME280;1001;48.87406500;9.59633600;2023-07-13T04:18:44;95203.22;;;16.61;79.12
2000;BME280;1001;48.87406500;9.59633600;2023-07-13T04:21:11;95199.81;;;16.66;78.90
2000;BME280;1001;48.87406500;9.59633600;2023-07-13T04:23:38;95197.97;;;16.81;77.74
2000;BME280;1001;48.87406500;9.59633600;2023-07-13T04:26:05;95194.25;;;16.82;77.14
2000;BME280;1001;48.87406500;9.59633600;2023-07-13T04:28:33;95199.53;;;16.97;75.79
2000;BME280;1001;48.87406500;9.59633600;2023-07-13T04:31:01;95204.31;;;17.11;73.60
2000;BME280;1001;48.87406500;9.59633600;2023-07-13T04:33:28;95213.00;;;17.11;74.53
2000;BME280;1001;48.87406500;9.59633600;2023-07-13T04:35:55;95212.22;;;17.11;73.73
2000;BME280;1001;48.87406500;9.59633600;2023-07-13T04:38:24;95211.16;;;17.17;73.36
2000;BME280;1001;48.87406500;9.59633600;2023-07-13T04:40:54;95215.91;;;17.15;74.58
2000;BME280;1001;48.87406500;9.59633600;2023-07-13T04:43:21;95218.28;;;17.16;73.76
2000;BME280;1001;48.87406500;9.59633600;2023-07-13T04:45:47;95212.19;;;17.31;72.23
2000;BME280;1001;48.87406500;9.59633600;2023-07-13T04:48:15;95214.81;;;17.41;71.36
2000;BME280;1001;48.87406500;9.59633600;2023-07-13T04:50:42;95215.56;;;17.46;71.76
2000;BME280;1001;48.87406500;9.59633600;2023-07-13T04:53:09;95208.66;;;17.65;70.85
2000;BME280;1001;48.87406500;9.59633600;2023-07-13T04:55:36;95212.13;;;17.61;71.44
2000;BME280;1001;48.87406500;9.59633600;2023-07-13T04:58:03;95213.72;;;17.67;71.89
2000;BME280;1001;48.87406500;9.59633600;2023-07-13T05:00:30;95206.28;;;17.69;72.32
2000;BME280;1001;48.87406500;9.59633600;2023-07-13T05:02:58;95209.97;;;17.73;71.37
2000;BME280;1001;48.87406500;9.59633600;2023-07-13T05:05:26;95210.50;;;17.70;71.19
2000;BME280;1001;48.87406500;9.59633600;2023-07-13T05:07:53;95206.34;;;17.54;71.93
2000;BME280;1001;48.87406500;9.59633600;2023-07-13T05:10:21;95210.56;;;17.60;71.22
2000;BME280;1001;48.87406500;9.59633600;2023-07-13T05:12:47;95211.63;;;17.54;71.27
2000;BME280;1001;48.87406500;9.59633600;2023-07-13T05:15:14;95212.13;;;17.51;71.27
2000;BME280;1001;48.87406500;9.59633600;2023-07-13T05:17:41;95217.44;;;17.46;73.33
2000;BME280;1001;48.87406500;9.59633600;2023-07-13T05:20:09;95224.06;;;17.38;74.95
2000;BME280;1001;48.87406500;9.59633600;2023-07-13T05:22:37;95220.09;;;17.46;74.79
2000;BME280;1001;48.87406500;9.59633600;2023-07-13T05:25:05;95221.09;;;17.70;74.50
2000;BME280;1001;48.87406500;9.59633600;2023-07-13T05:27:32;95233.16;;;17.96;72.15
2000;BME280;1001;48.87406500;9.59633600;2023-07-13T05:30:00;95230.75;;;18.10;69.43
2000;BME280;1001;48.87406500;9.59633600;2023-07-13T05:32:26;95238.28;;;18.31;70.61
2000;BME280;1001;48.87406500;9.59633600;2023-07-13T05:34:53;95230.56;;;18.40;68.80
2000;BME280;1001;48.87406500;9.59633600;2023-07-13T05:37:20;95227.31;;;18.53;69.51
2000;BME280;1001;48.87406500;9.59633600;2023-07-13T05:39:48;95234.44;;;18.58;69.23
2000;BME280;1001;48.87406500;9.59633600;2023-07-13T05:42:14;95235.88;;;18.79;67.39
2000;BME280;1001;48.87406500;9.59633600;2023-07-13T05:44:41;95238.16;;;18.95;66.70
2000;BME280;1001;48.87406500;9.59633600;2023-07-13T05:47:08;95229.66;;;18.98;67.31
2000;BME280;1001;48.87406500;9.59633600;2023-07-13T05:49:34;95229.50;;;19.19;64.56
2000;BME280;1001;48.87406500;9.59633600;2023-07-13T05:52:01;95236.31;;;19.25;62.97
2000;BME280;1001;48.87406500;9.59633600;2023-07-13T05:54:27;95238.38;;;19.33;60.98
2000;BME280;1001;48.87406500;9.59633600;2023-07-13T05:56:56;95237.84;;;19.02;62.30
2000;BME280;1001;48.87406500;9.59633600;2023-07-13T05:59:23;95230.00;;;18.87;62.93
2000;BME280;1001;48.87406500;9.59633600;2023-07-13T06:01:50;95236.50;;;18.71;63.17
2000;BME280;1001;48.87406500;9.59633600;2023-07-13T06:04:18;95232.25;;;18.70;64.62
2000;BME280;1001;48.87406500;9.59633600;2023-07-13T06:06:44;95232.25;;;19.03;64.63
2000;BME280;1001;48.87406500;9.59633600;2023-07-13T06:09:11;95244.28;;;18.91;65.74
2000;BME280;1001;48.87406500;9.59633600;2023-07-13T06:11:37;95245.69;;;19.12;63.79
2000;BME280;1001;48.87406500;9.59633600;2023-07-13T06:14:05;95248.13;;;19.09;63.82
2000;BME280;1001;48.87406500;9.59633600;2023-07-13T06:16:32;95258.03;;;19.27;63.29
2000;BME280;1001;48.87406500;9.59633600;2023-07-13T06:18:58;95265.16;;;19.31;63.10
2000;BME280;1001;48.87406500;9.59633600;2023-07-13T06:21:25;95263.41;;;19.17;67.04
2000;BME280;1001;48.87406500;9.59633600;2023-07-13T06:23:52;95262.03;;;19.24;64.86
2000;BME280;1001;48.87406500;9.59633600;2023-07-13T06:26:20;95263.06;;;19.28;64.49
2000;BME280;1001;48.87406500;9.59633600;2023-07-13T06:28:47;95253.47;;;19.32;65.00
2000;BME280;1001;48.87406500;9.59633600;2023-07-13T06:31:15;95262.31;;;19.23;63.91
2000;BME280;1001;48.87406500;9.59633600;2023-07-13T06:33:43;95267.66;;;19.51;64.53
2000;BME280;1001;48.87406500;9.59633600;2023-07-13T06:36:10;95272.75;;;20.19;62.45
2000;BME280;1001;48.87406500;9.59633600;2023-07-13T06:38:37;95279.50;;;20.91;60.30
2000;BME280;1001;48.87406500;9.59633600;2023-07-13T06:41:04;95271.94;;;22.08;54.51
2000;BME280;1001;48.87406500;9.59633600;2023-07-13T06:43:31;95293.94;;;21.87;52.97
2000;BME280;1001;48.87406500;9.59633600;2023-07-13T06:45:58;95296.91;;;22.40;53.47
2000;BME280;1001;48.87406500;9.59633600;2023-07-13T06:48:26;95304.00;;;22.71;52.05
2000;BME280;1001;48.87406500;9.59633600;2023-07-13T06:50:53;95303.59;;;23.14;51.20
2000;BME280;1001;48.87406500;9.59633600;2023-07-13T06:53:20;95297.38;;;22.69;52.49
2000;BME280;1001;48.87406500;9.59633600;2023-07-13T06:55:48;95311.91;;;22.49;51.73
2000;BME280;1001;48.87406500;9.59633600;2023-07-13T06:58:16;95309.22;;;22.08;51.51
2000;BME280;1001;48.87406500;9.59633600;2023-07-13T07:00:43;95315.75;;;22.02;53.76
2000;BME280;1001;48.87406500;9.59633600;2023-07-13T07:03:10;95311.50;;;22.01;53.77
2000;BME280;1001;48.87406500;9.59633600;2023-07-13T07:05:38;95315.16;;;22.46;52.50
2000;BME280;1001;48.87406500;9.59633600;2023-07-13T07:08:05;95310.16;;;22.94;52.99
2000;BME280;1001;48.87406500;9.59633600;2023-07-13T07:10:32;95319.50;;;22.42;52.31
2000;BME280;1001;48.87406500;9.59633600;2023-07-13T07:12:58;95322.59;;;22.98;53.70
2000;BME280;1001;48.87406500;9.59633600;2023-07-13T07:15:25;95317.16;;;23.03;51.45
2000;BME280;1001;48.87406500;9.59633600;2023-07-13T07:17:52;95322.41;;;23.53;52.66
2000;BME280;1001;48.87406500;9.59633600;2023-07-13T07:20:18;95323.88;;;23.59;53.51
2000;BME280;1001;48.87406500;9.59633600;2023-07-13T07:22:47;95324.53;;;23.95;51.35
2000;BME280;1001;48.87406500;9.59633600;2023-07-13T07:25:13;95337.06;;;24.08;51.06
2000;BME280;1001;48.87406500;9.59633600;2023-07-13T07:27:40;95339.41;;;24.10;50.91
2000;BME280;1001;48.87406500;9.59633600;2023-07-13T07:30:07;95328.78;;;24.27;50.68
2000;BME280;1001;48.87406500;9.59633600;2023-07-13T07:32:34;95328.31;;;24.25;48.37
2000;BME280;1001;48.87406500;9.59633600;2023-07-13T07:35:01;95339.69;;;24.39;47.16
2000;BME280;1001;48.87406500;9.59633600;2023-07-13T07:37:27;95335.81;;;23.39;46.83
2000;BME280;1001;48.87406500;9.59633600;2023-07-13T07:39:55;95329.75;;;22.76;47.46
2000;BME280;1001;48.87406500;9.59633600;2023-07-13T07:42:22;95335.28;;;21.65;47.98
2000;BME280;1001;48.87406500;9.59633600;2023-07-13T07:44:48;95331.31;;;21.63;49.90
2000;BME280;1001;48.87406500;9.59633600;2023-07-13T07:47:15;95331.16;;;22.19;47.90
2000;BME280;1001;48.87406500;9.59633600;2023-07-13T07:49:41;95339.41;;;22.04;47.31
2000;BME280;1001;48.87406500;9.59633600;2023-07-13T07:52:08;95327.38;;;22.74;47.79
2000;BME280;1001;48.87406500;9.59633600;2023-07-13T07:54:35;95332.78;;;22.96;48.16
2000;BME280;1001;48.87406500;9.59633600;2023-07-13T07:57:03;95334.31;;;23.33;48.09
2000;BME280;1001;48.87406500;9.59633600;2023-07-13T07:59:29;95337.78;;;23.78;47.38
2000;BME280;1001;48.87406500;9.59633600;2023-07-13T08:01:56;95350.00;;;23.71;46.64
2000;BME280;1001;48.87406500;9.59633600;2023-07-13T08:04:23;95339.91;;;23.23;42.20
2000;BME280;1001;48.87406500;9.59633600;2023-07-13T08:06:49;95336.50;;;23.31;43.60
2000;BME280;1001;48.87406500;9.59633600;2023-07-13T08:09:16;95336.31;;;23.06;44.19
2000;BME280;1001;48.87406500;9.59633600;2023-07-13T08:11:42;95345.75;;;22.62;44.19
2000;BME280;1001;48.87406500;9.59633600;2023-07-13T08:14:10;95341.03;;;23.09;45.53
2000;BME280;1001;48.87406500;9.59633600;2023-07-13T08:16:37;95347.94;;;23.45;45.53
2000;BME280;1001;48.87406500;9.59633600;2023-07-13T08:19:03;95349.50;;;23.91;44.03
2000;BME280;1001;48.87406500;9.59633600;2023-07-13T08:21:31;95349.41;;;24.04;44.10
2000;BME280;1001;48.87406500;9.59633600;2023-07-13T08:23:58;95354.34;;;23.89;41.77
2000;BME280;1001;48.87406500;9.59633600;2023-07-13T08:26:24;95352.50;;;23.45;43.18
2000;BME280;1001;48.87406500;9.59633600;2023-07-13T08:28:51;95349.16;;;23.61;43.55
2000;BME280;1001;48.87406500;9.59633600;2023-07-13T08:31:19;95356.88;;;23.63;43.81
2000;BME280;1001;48.87406500;9.59633600;2023-07-13T08:33:45;95359.16;;;23.78;43.75
2000;BME280;1001;48.87406500;9.59633600;2023-07-13T08:36:12;95360.88;;;24.05;44.33
2000;BME280;1001;48.87406500;9.59633600;2023-07-13T08:38:38;95360.75;;;23.79;41.98
2000;BME280;1001;48.87406500;9.59633600;2023-07-13T08:41:11;95361.41;;;23.85;44.77
2000;BME280;1001;48.87406500;9.59633600;2023-07-13T08:43:39;95357.56;;;22.97;45.45
2000;BME280;1001;48.87406500;9.59633600;2023-07-13T08:46:12;95359.41;;;22.61;43.93
2000;BME280;1001;48.87406500;9.59633600;2023-07-13T08:48:44;95362.91;;;22.97;47.81
2000;BME280;1001;48.87406500;9.59633600;2023-07-13T08:51:23;95354.22;;;22.91;45.34
2000;BME280;1001;48.87406500;9.59633600;2023-07-13T08:53:53;95366.00;;;22.77;46.50
2000;BME280;1001;48.87406500;9.59633600;2023-07-13T08:56:24;95363.31;;;22.77;43.61
2000;BME280;1001;48.87406500;9.59633600;2023-07-13T08:58:55;95366.44;;;23.06;44.11
2000;BME280;1001;48.87406500;9.59633600;2023-07-13T09:01:28;95365.25;;;23.34;42.89
2000;BME280;1001;48.87406500;9.59633600;2023-07-13T09:04:04;95360.06;;;23.74;43.10
2000;BME280;1001;48.87406500;9.59633600;2023-07-13T09:06:43;95361.25;;;23.59;42.47
2000;BME280;1001;48.87406500;9.59633600;2023-07-13T09:09:20;95362.25;;;23.72;43.07
2000;BME280;1001;48.87406500;9.59633600;2023-07-13T09:11:52;95361.78;;;23.69;42.71
2000;BME280;1001;48.87406500;9.59633600;2023-07-13T09:14:41;95375.13;;;23.69;43.42
2000;BME280;1001;48.87406500;9.59633600;2023-07-13T09:17:14;95365.28;;;23.79;43.24
2000;BME280;1001;48.87406500;9.59633600;2023-07-13T09:19:46;95375.97;;;24.01;43.36
2000;BME280;1001;48.87406500;9.59633600;2023-07-13T09:22:18;95370.44;;;24.28;42.11
2000;BME280;1001;48.87406500;9.59633600;2023-07-13T09:24:53;95375.44;;;24.21;41.58
2000;BME280;1001;48.87406500;9.59633600;2023-07-13T09:27:25;95372.22;;;23.57;42.15
2000;BME280;1001;48.87406500;9.59633600;2023-07-13T09:30:02;95372.13;;;23.93;42.19
2000;BME280;1001;48.87406500;9.59633600;2023-07-13T09:32:31;95374.38;;;24.22;42.60
2000;BME280;1001;48.87406500;9.59633600;2023-07-13T09:35:00;95376.09;;;23.74;42.13
2000;BME280;1001;48.87406500;9.59633600;2023-07-13T09:37:30;95378.41;;;23.31;40.68
2000;BME280;1001;48.87406500;9.59633600;2023-07-13T09:39:59;95380.47;;;23.69;42.06
2000;BME280;1001;48.87406500;9.59633600;2023-07-13T09:42:31;95378.28;;;23.72;42.87
2000;BME280;1001;48.87406500;9.59633600;2023-07-13T09:45:00;95376.13;;;23.51;42.10
2000;BME280;1001;48.87406500;9.59633600;2023-07-13T09:47:31;95370.03;;;23.59;40.90
2000;BME280;1001;48.87406500;9.59633600;2023-07-13T09:50:01;95373.84;;;23.89;42.55
2000;BME280;1001;48.87406500;9.59633600;2023-07-13T09:52:39;95367.19;;;23.56;42.50
2000;BME280;1001;48.87406500;9.59633600;2023-07-13T09:55:23;95373.50;;;23.82;41.83
2000;BME280;1001;48.87406500;9.59633600;2023-07-13T09:57:50;95373.59;;;23.55;40.54
2000;BME280;1001;48.87406500;9.59633600;2023-07-13T10:00:21;95370.88;;;23.46;43.22
2000;BME280;1001;48.87406500;9.59633600;2023-07-13T10:02:58;95369.66;;;23.17;43.23
2000;BME280;1001;48.87406500;9.59633600;2023-07-13T10:05:26;95375.38;;;22.74;43.27
2000;BME280;1001;48.87406500;9.59633600;2023-07-13T10:07:55;95368.34;;;23.63;45.51
2000;BME280;1001;48.87406500;9.59633600;2023-07-13T10:10:23;95371.06;;;23.94;41.08
2000;BME280;1001;48.87406500;9.59633600;2023-07-13T10:12:50;95366.84;;;24.02;41.29
2000;BME280;1001;48.87406500;9.59633600;2023-07-13T10:15:19;95368.88;;;24.27;42.79
2000;BME280;1001;48.87406500;9.59633600;2023-07-13T10:17:47;95386.19;;;24.69;42.14
2000;BME280;1001;48.87406500;9.59633600;2023-07-13T10:20:14;95383.63;;;24.55;41.00
2000;BME280;1001;48.87406500;9.59633600;2023-07-13T10:22:46;95386.16;;;24.60;41.60
2000;BME280;1001;48.87406500;9.59633600;2023-07-13T10:25:19;95375.81;;;24.76;39.47
2000;BME280;1001;48.87406500;9.59633600;2023-07-13T10:27:49;95377.69;;;24.67;36.90
2000;BME280;1001;48.87406500;9.59633600;2023-07-13T10:30:20;95376.34;;;24.47;39.52
2000;BME280;1001;48.87406500;9.59633600;2023-07-13T10:32:48;95388.22;;;24.24;39.61
2000;BME280;1001;48.87406500;9.59633600;2023-07-13T10:35:19;95385.97;;;24.57;40.46
2000;BME280;1001;48.87406500;9.59633600;2023-07-13T10:37:51;95386.44;;;24.50;40.23
2000;BME280;1001;48.87406500;9.59633600;2023-07-13T10:40:22;95385.13;;;24.78;40.69
2000;BME280;1001;48.87406500;9.59633600;2023-07-13T10:42:56;95374.81;;;25.11;39.84
2000;BME280;1001;48.87406500;9.59633600;2023-07-13T10:45:24;95378.63;;;25.44;38.55
2000;BME280;1001;48.87406500;9.59633600;2023-07-13T10:47:54;95380.84;;;25.68;39.89
2000;BME280;1001;48.87406500;9.59633600;2023-07-13T10:50:23;95379.38;;;26.13;37.61
2000;BME280;1001;48.87406500;9.59633600;2023-07-13T10:52:53;95373.56;;;26.49;39.30
2000;BME280;1001;48.87406500;9.59633600;2023-07-13T10:55:36;95371.56;;;26.67;37.30
2000;BME280;1001;48.87406500;9.59633600;2023-07-13T10:58:14;95383.25;;;27.00;38.25
2000;BME280;1001;48.87406500;9.59633600;2023-07-13T11:00:49;95375.09;;;27.17;36.22
2000;BME280;1001;48.87406500;9.59633600;2023-07-13T11:03:19;95373.94;;;27.47;37.95
2000;BME280;1001;48.87406500;9.59633600;2023-07-13T11:05:49;95372.31;;;27.14;36.20
2000;BME280;1001;48.87406500;9.59633600;2023-07-13T11:08:24;95379.59;;;26.38;36.84
2000;BME280;1001;48.87406500;9.59633600;2023-07-13T11:10:58;95371.63;;;26.58;37.12
2000;BME280;1001;48.87406500;9.59633600;2023-07-13T11:16:43;95367.13;;;26.79;35.09
2000;BME280;1001;48.87406500;9.59633600;2023-07-13T11:19:40;95366.59;;;26.57;37.45
2000;BME280;1001;48.87406500;9.59633600;2023-07-13T11:22:16;95362.63;;;26.08;38.45
2000;BME280;1001;48.87406500;9.59633600;2023-07-13T11:25:01;95367.16;;;26.33;39.09
2000;BME280;1001;48.87406500;9.59633600;2023-07-13T11:27:38;95359.66;;;26.56;35.60
2000;BME280;1001;48.87406500;9.59633600;2023-07-13T11:30:31;95349.47;;;26.41;36.72
2000;BME280;1001;48.87406500;9.59633600;2023-07-13T11:33:04;95352.84;;;26.58;37.72
2000;BME280;1001;48.87406500;9.59633600;2023-07-13T11:35:35;95356.97;;;26.09;36.55
2000;BME280;1001;48.87406500;9.59633600;2023-07-13T11:38:13;95359.31;;;26.19;38.08
2000;BME280;1001;48.87406500;9.59633600;2023-07-13T11:40:43;95360.28;;;26.06;39.69
2000;BME280;1001;48.87406500;9.59633600;2023-07-13T11:43:13;95352.31;;;25.81;40.15
2000;BME280;1001;48.87406500;9.59633600;2023-07-13T11:45:40;95348.56;;;25.64;38.59
2000;BME280;1001;48.87406500;9.59633600;2023-07-13T11:48:18;95359.25;;;25.64;38.47
2000;BME280;1001;48.87406500;9.59633600;2023-07-13T11:50:51;95345.72;;;25.27;39.11
2000;BME280;1001;48.87406500;9.59633600;2023-07-13T11:53:18;95351.84;;;25.44;37.79